createdAt,value
2022-12-03T00:03:44.977Z,14.55
2022-12-03T00:08:47.471Z,15.65
2022-12-03T00:13:49.931Z,17.77
2022-12-03T00:18:52.234Z,16.98
2022-12-03T00:23:55.012Z,13.63
2022-12-03T00:28:57.906Z,14.40
2022-12-03T00:34:00.318Z,13.40
2022-12-03T00:39:02.844Z,16.23
2022-12-03T00:44:04.999Z,18.05
2022-12-03T00:49:07.088Z,13.32
2022-12-03T00:54:10.314Z,16.38
2022-12-03T00:59:12.493Z,16.25
2022-12-03T01:04:15.243Z,16.80
2022-12-03T01:09:17.328Z,16.52
2022-12-03T01:14:20.589Z,15.20
2022-12-03T01:19:22.624Z,16.40
2022-12-03T01:24:24.631Z,17.17
2022-12-03T01:29:27.214Z,15.85
2022-12-03T01:34:52.942Z,14.05
2022-12-03T01:39:59.710Z,12.35
2022-12-03T01:45:02.859Z,13.15
2022-12-03T01:50:43.543Z,11.85
2022-12-03T01:55:48.880Z,13.52
2022-12-03T02:00:51.257Z,12.52
2022-12-03T02:05:53.564Z,11.35
2022-12-03T02:10:57.909Z,10.75
2022-12-03T02:16:00.199Z,10.65
2022-12-03T02:21:11.401Z,11.70
2022-12-03T02:26:13.579Z,9.45
2022-12-03T02:31:15.718Z,8.85
2022-12-03T02:36:17.778Z,8.68
2022-12-03T02:41:44.408Z,10.52
2022-12-03T02:46:46.826Z,10.48
2022-12-03T02:51:49.615Z,8.05
2022-12-03T02:56:51.864Z,9.75
2022-12-03T03:01:56.059Z,8.48
2022-12-03T03:06:58.297Z,10.20
2022-12-03T03:12:00.866Z,9.65
2022-12-03T03:17:04.190Z,9.00
2022-12-03T03:22:06.652Z,12.48
2022-12-03T03:27:09.022Z,12.40
2022-12-03T03:32:11.940Z,13.00
2022-12-03T03:37:14.038Z,9.63
2022-12-03T03:42:16.391Z,10.18
2022-12-03T03:47:18.807Z,13.80
2022-12-03T03:52:21.210Z,9.30
2022-12-03T03:57:26.079Z,8.52
2022-12-03T04:02:29.334Z,9.30
2022-12-03T04:07:31.508Z,8.52
2022-12-03T04:12:52.585Z,8.95
2022-12-03T04:18:27.378Z,7.80
2022-12-03T04:23:31.238Z,7.43
2022-12-03T04:28:51.692Z,9.35
2022-12-03T04:34:12.585Z,8.10
2022-12-03T04:39:14.703Z,7.65
2022-12-03T04:44:35.420Z,6.10
2022-12-03T04:49:48.526Z,10.18
2022-12-03T04:54:51.001Z,9.60
2022-12-03T04:59:53.166Z,7.60
2022-12-03T05:04:55.378Z,9.05
2022-12-03T05:09:57.684Z,9.82
2022-12-03T05:14:59.751Z,9.45
2022-12-03T05:20:20.420Z,7.30
2022-12-03T05:25:22.611Z,9.43
2022-12-03T05:30:24.631Z,10.10
2022-12-03T05:35:26.977Z,15.60
2022-12-03T05:40:29.185Z,13.57
2022-12-03T05:45:35.019Z,11.85
2022-12-03T05:50:38.975Z,11.18
2022-12-03T05:55:50.006Z,12.57
2022-12-03T06:00:52.437Z,10.38
2022-12-03T06:05:55.040Z,8.93
2022-12-03T06:10:57.346Z,11.70
2022-12-03T06:15:59.540Z,9.70
2022-12-03T06:21:01.964Z,9.65
2022-12-03T06:26:03.968Z,10.55
2022-12-03T06:31:06.574Z,10.88
2022-12-03T06:36:09.167Z,8.93
2022-12-03T06:41:11.743Z,10.32
2022-12-03T06:46:14.322Z,8.38
2022-12-03T06:51:16.453Z,8.88
2022-12-03T06:56:22.125Z,9.18
2022-12-03T07:01:25.393Z,10.15
2022-12-03T07:06:42.835Z,8.98
2022-12-03T07:11:44.817Z,7.25
2022-12-03T07:16:49.864Z,9.73
2022-12-03T07:21:52.072Z,9.98
2022-12-03T07:26:54.461Z,8.07
2022-12-03T07:31:56.589Z,9.68
2022-12-03T07:36:59.633Z,8.80
2022-12-03T07:42:03.154Z,9.57
2022-12-03T07:47:05.361Z,7.53
2022-12-03T07:52:07.766Z,7.90
2022-12-03T07:57:10.049Z,7.78
2022-12-03T08:02:13.900Z,7.18
2022-12-03T08:07:21.619Z,9.25
2022-12-03T08:12:40.307Z,8.70
2022-12-03T08:17:43.362Z,11.23
2022-12-03T08:22:47.235Z,9.73
2022-12-03T08:27:49.729Z,8.93
2022-12-03T08:32:52.449Z,9.50
2022-12-03T08:38:14.358Z,12.63
2022-12-03T08:43:28.187Z,15.55
2022-12-03T08:48:42.811Z,14.18
2022-12-03T08:53:56.815Z,10.15
2022-12-03T08:59:25.546Z,12.95
2022-12-03T09:04:39.354Z,11.48
2022-12-03T09:09:41.741Z,7.32
2022-12-03T09:14:44.053Z,11.70
2022-12-03T09:19:46.586Z,8.30
2022-12-03T09:24:48.597Z,8.88
2022-12-03T09:29:51.028Z,10.52
2022-12-03T09:34:54.542Z,13.60
2022-12-03T09:39:56.758Z,15.52
2022-12-03T09:44:59.530Z,13.73
2022-12-03T09:50:02.350Z,12.52
2022-12-03T09:55:12.583Z,8.60
2022-12-03T10:00:19.390Z,11.50
2022-12-03T10:05:22.562Z,13.15
2022-12-03T10:10:25.736Z,14.75
2022-12-03T10:15:28.414Z,14.90
2022-12-03T10:20:30.721Z,18.50
2022-12-03T10:25:32.754Z,12.95
2022-12-03T10:30:39.123Z,14.98
2022-12-03T10:35:44.171Z,16.50
2022-12-03T10:40:46.762Z,16.20
2022-12-03T10:45:50.172Z,36.05
2022-12-03T10:50:55.309Z,20.77
2022-12-03T10:55:59.912Z,22.58
2022-12-03T11:01:03.939Z,23.77
2022-12-03T11:06:06.098Z,18.23
2022-12-03T11:11:18.670Z,37.75
2022-12-03T11:16:39.629Z,17.17
2022-12-03T11:22:13.781Z,18.42
2022-12-03T11:27:19.234Z,18.20
2022-12-03T11:32:39.563Z,11.48
2022-12-03T11:37:41.621Z,12.25
2022-12-03T11:42:44.384Z,12.20
2022-12-03T11:48:08.600Z,9.00
2022-12-03T11:53:26.191Z,10.20
2022-12-03T11:58:30.567Z,8.00
2022-12-03T12:03:34.842Z,8.15
2022-12-03T12:08:52.736Z,9.32
2022-12-03T12:19:30.803Z,10.30
2022-12-03T12:24:55.370Z,8.55
2022-12-03T12:29:59.391Z,10.27
2022-12-03T12:35:16.226Z,9.52
2022-12-03T12:40:19.139Z,12.63
2022-12-03T12:45:26.589Z,8.85
2022-12-03T12:50:31.161Z,7.82
2022-12-03T12:55:33.153Z,10.90
2022-12-03T13:00:35.887Z,14.85
2022-12-03T13:05:43.151Z,11.00
2022-12-03T13:10:45.561Z,12.73
2022-12-03T13:16:05.894Z,15.48
2022-12-03T13:21:20.524Z,9.13
2022-12-03T13:26:38.750Z,7.57
2022-12-03T13:31:44.329Z,6.70
2022-12-03T13:36:50.716Z,7.65
2022-12-03T13:42:17.994Z,6.72
2022-12-03T13:47:22.188Z,6.90
2022-12-03T13:52:26.737Z,8.48
2022-12-03T14:02:30.979Z,9.32
2022-12-03T14:07:33.307Z,7.88
2022-12-03T14:12:35.514Z,8.43
2022-12-03T14:17:37.894Z,6.43
2022-12-03T14:22:40.138Z,6.88
2022-12-03T14:27:42.460Z,5.68
2022-12-03T14:32:44.437Z,7.82
2022-12-03T14:37:46.459Z,6.95
2022-12-03T14:42:48.648Z,7.97
2022-12-03T14:47:54.347Z,10.30
2022-12-03T14:53:01.020Z,11.07
2022-12-03T14:58:03.796Z,10.68
2022-12-03T15:03:05.776Z,9.48
2022-12-03T15:08:09.601Z,7.10
2022-12-03T15:13:11.862Z,11.30
2022-12-03T15:18:13.820Z,9.63
2022-12-03T15:23:16.269Z,12.57
2022-12-03T15:28:18.503Z,10.05
2022-12-03T15:33:20.601Z,13.23
2022-12-03T15:38:22.979Z,16.30
2022-12-03T15:43:25.431Z,15.07
2022-12-03T15:48:27.487Z,10.65
2022-12-03T15:53:29.842Z,13.90
2022-12-03T15:58:32.234Z,11.50
2022-12-03T16:03:35.243Z,14.20
2022-12-03T16:08:37.372Z,11.68
2022-12-03T16:13:39.923Z,13.82
2022-12-03T16:18:41.835Z,11.20
2022-12-03T16:23:43.987Z,20.83
2022-12-03T16:28:46.301Z,16.70
2022-12-03T16:33:48.587Z,16.52
2022-12-03T16:38:51.824Z,13.40
2022-12-03T16:43:54.693Z,10.20
2022-12-03T16:48:58.071Z,14.63
2022-12-03T16:54:00.389Z,21.90
2022-12-03T16:59:03.125Z,19.20
2022-12-03T17:04:05.200Z,28.27
2022-12-03T17:09:07.405Z,29.55
2022-12-03T17:14:09.691Z,20.85
2022-12-03T17:19:12.025Z,22.63
2022-12-03T17:24:14.268Z,21.55
2022-12-03T17:29:16.717Z,22.35
2022-12-03T17:34:18.906Z,22.50
2022-12-03T17:39:23.175Z,26.15
2022-12-03T17:44:25.629Z,25.95
2022-12-03T17:49:31.721Z,25.55
2022-12-03T17:54:49.368Z,27.13
2022-12-03T17:59:59.804Z,23.48
2022-12-03T18:05:02.480Z,25.48
2022-12-03T18:10:08.992Z,28.95
2022-12-03T18:15:11.736Z,32.08
2022-12-03T18:20:16.990Z,31.27
2022-12-03T18:25:19.482Z,27.48
2022-12-03T18:30:22.305Z,32.08
2022-12-03T18:35:29.389Z,26.13
2022-12-03T18:40:31.615Z,25.52
2022-12-03T18:45:34.193Z,26.27
2022-12-03T18:50:36.393Z,23.13
2022-12-03T18:55:39.786Z,24.10
2022-12-03T19:00:42.970Z,25.58
2022-12-03T19:05:45.257Z,21.95
2022-12-03T19:10:56.159Z,24.83
2022-12-03T19:16:03.365Z,21.35
2022-12-03T19:21:11.145Z,22.67
2022-12-03T19:26:15.002Z,21.70
2022-12-03T19:31:19.707Z,23.67
2022-12-03T19:36:26.300Z,26.85
2022-12-03T19:41:30.932Z,24.75
2022-12-03T19:46:33.522Z,28.25
2022-12-03T19:51:36.042Z,22.40
2022-12-03T19:56:40.183Z,24.23
2022-12-03T20:01:44.320Z,20.98
2022-12-03T20:06:47.935Z,24.50
2022-12-03T20:11:52.169Z,24.35
2022-12-03T20:16:55.351Z,23.80
2022-12-03T20:22:02.791Z,20.67
2022-12-03T20:27:07.809Z,20.85
2022-12-03T20:32:22.645Z,21.55
2022-12-03T20:37:26.996Z,22.83
2022-12-03T20:42:30.247Z,22.25
2022-12-03T20:47:34.598Z,23.95
2022-12-03T20:52:38.385Z,21.65
2022-12-03T20:57:43.990Z,22.42
2022-12-03T21:02:46.991Z,21.60
2022-12-03T21:07:51.205Z,23.40
2022-12-03T21:12:53.189Z,25.02
2022-12-03T21:17:55.807Z,24.52
2022-12-03T21:22:59.557Z,21.65
2022-12-03T21:28:10.487Z,23.00
2022-12-03T21:33:12.529Z,23.42
2022-12-03T21:38:15.055Z,22.85
2022-12-03T21:43:18.141Z,25.30
2022-12-03T21:48:20.976Z,26.00
2022-12-03T21:53:23.946Z,30.38
2022-12-03T21:58:26.346Z,25.90
2022-12-03T22:03:28.918Z,26.83
2022-12-03T22:08:32.082Z,27.77
2022-12-03T22:13:34.602Z,26.27
2022-12-03T22:18:38.563Z,25.63
2022-12-03T22:23:40.746Z,24.17
2022-12-03T22:28:48.406Z,31.25
2022-12-03T22:33:51.121Z,37.25
2022-12-03T22:38:54.349Z,34.22
2022-12-03T22:43:56.573Z,36.90
2022-12-03T22:49:03.476Z,33.53
2022-12-03T22:54:10.764Z,28.60
2022-12-03T22:59:13.399Z,26.95
2022-12-03T23:04:16.008Z,29.15
2022-12-03T23:09:19.135Z,26.30
2022-12-03T23:14:21.206Z,26.35
2022-12-03T23:19:23.349Z,28.13
2022-12-03T23:24:26.731Z,29.52
2022-12-03T23:29:28.766Z,27.08
2022-12-03T23:34:31.214Z,27.83
2022-12-03T23:39:33.160Z,29.60
2022-12-03T23:44:35.018Z,26.13
2022-12-03T23:49:37.939Z,25.90
2022-12-03T23:54:40.611Z,24.60
2022-12-03T23:59:42.942Z,21.25
